createdAt,value
2023-05-19T00:00:22.586Z,14.41
2023-05-19T00:01:24.343Z,13.47
2023-05-19T00:02:26.305Z,13.70
2023-05-19T00:03:28.299Z,13.73
2023-05-19T00:04:30.034Z,12.47
2023-05-19T00:05:31.800Z,13.60
2023-05-19T00:06:33.618Z,14.16
2023-05-19T00:09:02.567Z,13.39
2023-05-19T00:10:04.616Z,12.84
2023-05-19T00:11:06.355Z,13.22
2023-05-19T00:13:29.419Z,10.96
2023-05-19T00:14:31.257Z,12.32
2023-05-19T00:15:33.156Z,13.99
2023-05-19T00:16:35.092Z,13.14
2023-05-19T00:17:36.898Z,13.25
2023-05-19T00:18:38.673Z,12.35
2023-05-19T00:19:40.617Z,14.39
2023-05-19T00:20:42.439Z,10.90
2023-05-19T00:21:44.177Z,11.33
2023-05-19T00:22:45.924Z,12.71
2023-05-19T00:23:47.685Z,11.32
2023-05-19T00:24:49.452Z,11.94
2023-05-19T00:25:51.192Z,12.13
2023-05-19T00:26:53.024Z,15.59
2023-05-19T00:27:54.852Z,11.23
2023-05-19T00:28:56.713Z,13.39
2023-05-19T00:29:58.461Z,12.55
2023-05-19T00:31:00.288Z,11.08
2023-05-19T00:32:02.181Z,11.86
2023-05-19T00:33:04.100Z,10.97
2023-05-19T00:34:05.840Z,10.95
2023-05-19T00:35:07.591Z,9.81
2023-05-19T00:36:09.527Z,12.33
2023-05-19T00:37:11.367Z,11.69
2023-05-19T00:38:13.192Z,11.25
2023-05-19T00:39:15.099Z,10.29
2023-05-19T00:40:16.929Z,11.10
2023-05-19T00:41:18.841Z,9.45
2023-05-19T00:42:20.623Z,12.05
2023-05-19T00:43:22.455Z,11.20
2023-05-19T00:44:24.345Z,11.37
2023-05-19T00:45:26.096Z,10.69
2023-05-19T00:46:28.008Z,12.63
2023-05-19T00:47:29.940Z,10.84
2023-05-19T00:48:31.822Z,11.15
2023-05-19T00:49:33.702Z,10.86
2023-05-19T00:50:35.567Z,11.85
2023-05-19T00:51:37.305Z,10.97
2023-05-19T00:52:39.046Z,12.48
2023-05-19T00:53:40.803Z,12.66
2023-05-19T00:54:42.562Z,14.57
2023-05-19T00:55:44.303Z,12.54
2023-05-19T00:56:46.143Z,9.95
2023-05-19T00:57:47.913Z,11.63
2023-05-19T00:58:49.741Z,12.22
2023-05-19T00:59:51.528Z,15.35
2023-05-19T01:00:53.386Z,13.72
2023-05-19T01:01:55.210Z,14.11
2023-05-19T01:02:57.346Z,11.40
2023-05-19T01:03:59.485Z,10.71
2023-05-19T01:05:01.395Z,11.05
2023-05-19T01:06:03.234Z,11.74
2023-05-19T01:07:05.081Z,12.13
2023-05-19T01:08:06.828Z,11.79
2023-05-19T01:09:08.561Z,12.33
2023-05-19T01:10:10.547Z,11.84
2023-05-19T01:11:12.397Z,10.84
2023-05-19T01:12:14.259Z,10.72
2023-05-19T01:13:16.097Z,11.89
2023-05-19T01:14:17.938Z,9.73
2023-05-19T01:15:19.812Z,12.08
2023-05-19T01:16:21.697Z,11.53
2023-05-19T01:17:23.407Z,12.30
2023-05-19T01:18:25.154Z,10.93
2023-05-19T01:19:27.011Z,14.72
2023-05-19T01:20:28.882Z,11.90
2023-05-19T01:21:30.794Z,9.79
2023-05-19T01:22:32.624Z,10.80
2023-05-19T01:23:34.374Z,11.29
2023-05-19T01:24:36.112Z,12.02
2023-05-19T01:25:38.029Z,13.64
2023-05-19T01:26:39.845Z,11.49
2023-05-19T01:27:41.689Z,10.35
2023-05-19T01:28:43.564Z,11.67
2023-05-19T01:29:45.396Z,11.83
2023-05-19T01:30:47.270Z,12.68
2023-05-19T01:31:49.086Z,10.31
2023-05-19T01:32:50.798Z,9.63
2023-05-19T01:33:52.623Z,13.45
2023-05-19T01:34:54.352Z,11.94
2023-05-19T01:35:56.203Z,12.62
2023-05-19T01:36:58.052Z,10.38
2023-05-19T01:37:59.901Z,14.51
2023-05-19T01:39:01.738Z,12.53
2023-05-19T01:40:03.586Z,13.79
2023-05-19T01:41:05.476Z,13.72
2023-05-19T01:42:07.322Z,13.01
2023-05-19T01:43:09.074Z,13.16
2023-05-19T01:44:10.800Z,12.18
2023-05-19T01:45:12.539Z,12.63
2023-05-19T01:46:14.937Z,14.77
2023-05-19T01:47:16.785Z,11.13
2023-05-19T01:48:18.524Z,17.17
2023-05-19T01:49:20.260Z,15.38
2023-05-19T01:50:22.099Z,12.16
2023-05-19T01:51:23.967Z,12.04
2023-05-19T01:52:25.823Z,11.09
2023-05-19T01:53:27.676Z,13.41
2023-05-19T01:54:29.553Z,9.80
2023-05-19T01:55:31.294Z,10.84
2023-05-19T01:56:33.187Z,10.76
2023-05-19T01:57:35.030Z,9.28
2023-05-19T01:58:36.868Z,10.91
2023-05-19T01:59:38.716Z,10.92
2023-05-19T02:00:40.565Z,9.61
2023-05-19T02:01:42.515Z,11.16
2023-05-19T02:02:44.313Z,8.80
2023-05-19T02:03:46.039Z,12.58
2023-05-19T02:04:47.913Z,9.75
2023-05-19T02:05:49.928Z,11.40
2023-05-19T02:06:51.821Z,10.85
2023-05-19T02:07:53.681Z,10.45
2023-05-19T02:08:55.412Z,11.35
2023-05-19T02:09:57.145Z,9.19
2023-05-19T02:10:58.996Z,8.37
2023-05-19T02:12:00.774Z,9.49
2023-05-19T02:13:02.533Z,9.85
2023-05-19T02:14:04.287Z,7.06
2023-05-19T02:15:06.133Z,9.47
2023-05-19T02:16:08.516Z,9.96
2023-05-19T02:17:10.346Z,7.95
2023-05-19T02:18:12.124Z,12.15
2023-05-19T02:19:13.967Z,11.13
2023-05-19T02:20:15.786Z,11.19
2023-05-19T02:21:17.640Z,11.36
2023-05-19T02:22:19.428Z,11.63
2023-05-19T02:23:21.286Z,9.95
2023-05-19T02:24:23.108Z,9.79
2023-05-19T02:25:24.965Z,10.39
2023-05-19T02:26:26.814Z,11.23
2023-05-19T02:27:28.697Z,8.48
2023-05-19T02:28:30.553Z,8.43
2023-05-19T02:29:32.285Z,8.58
2023-05-19T02:30:34.265Z,11.83
2023-05-19T02:31:36.234Z,7.45
2023-05-19T02:32:38.035Z,8.56
2023-05-19T02:33:39.803Z,7.44
2023-05-19T02:34:41.550Z,10.05
2023-05-19T02:35:43.399Z,16.49
2023-05-19T02:36:45.239Z,10.35
2023-05-19T02:37:47.019Z,11.47
2023-05-19T02:38:48.769Z,11.62
2023-05-19T02:39:50.529Z,13.55
2023-05-19T02:40:52.372Z,12.59
2023-05-19T02:41:54.102Z,13.81
2023-05-19T02:42:55.994Z,15.87
2023-05-19T02:43:57.740Z,14.92
2023-05-19T02:44:59.600Z,15.63
2023-05-19T02:46:01.479Z,14.57
2023-05-19T02:47:03.280Z,16.28
2023-05-19T02:48:05.207Z,13.00
2023-05-19T02:49:07.019Z,17.26
2023-05-19T02:50:09.370Z,13.24
2023-05-19T02:51:11.118Z,15.26
2023-05-19T02:52:12.960Z,15.07
2023-05-19T02:53:14.852Z,14.96
2023-05-19T02:54:16.679Z,15.31
2023-05-19T02:55:18.522Z,16.84
2023-05-19T02:56:20.448Z,18.21
2023-05-19T02:57:22.299Z,17.01
2023-05-19T02:58:24.179Z,13.28
2023-05-19T02:59:26.014Z,15.71
2023-05-19T03:00:27.858Z,15.17
2023-05-19T03:01:29.707Z,16.13
2023-05-19T03:02:31.523Z,15.29
2023-05-19T03:03:33.360Z,14.76
2023-05-19T03:04:35.167Z,15.79
2023-05-19T03:05:36.900Z,14.43
2023-05-19T03:06:38.952Z,16.82
2023-05-19T03:07:40.864Z,17.16
2023-05-19T03:08:42.710Z,23.05
2023-05-19T03:09:44.667Z,22.91
2023-05-19T03:10:46.618Z,19.86
2023-05-19T03:11:48.370Z,17.37
2023-05-19T03:12:50.331Z,16.69
2023-05-19T03:13:52.272Z,17.40
2023-05-19T03:14:54.528Z,17.02
2023-05-19T03:15:56.315Z,18.32
2023-05-19T03:16:58.330Z,15.58
2023-05-19T03:18:00.259Z,17.81
2023-05-19T03:19:02.294Z,17.31
2023-05-19T03:20:04.380Z,16.27
2023-05-19T03:21:06.229Z,16.04
2023-05-19T03:22:07.973Z,16.20
2023-05-19T03:23:09.790Z,17.49
2023-05-19T03:24:11.681Z,22.25
2023-05-19T03:25:13.406Z,21.64
2023-05-19T03:26:15.735Z,20.96
2023-05-19T03:27:17.776Z,21.80
2023-05-19T03:28:19.521Z,23.32
2023-05-19T03:29:21.395Z,22.34
2023-05-19T03:30:23.240Z,20.72
2023-05-19T03:31:25.168Z,20.91
2023-05-19T03:32:27.416Z,21.70
2023-05-19T03:33:29.393Z,20.55
2023-05-19T03:34:31.224Z,18.40
2023-05-19T03:35:33.073Z,19.27
2023-05-19T03:36:35.033Z,15.52
2023-05-19T03:37:36.978Z,16.91
2023-05-19T03:38:38.948Z,16.95
2023-05-19T03:39:40.715Z,17.34
2023-05-19T03:40:42.631Z,20.96
2023-05-19T03:41:44.587Z,23.31
2023-05-19T03:42:46.849Z,22.49
2023-05-19T03:43:48.709Z,21.56
2023-05-19T03:44:50.642Z,22.58
2023-05-19T03:45:52.662Z,21.89
2023-05-19T03:46:54.554Z,20.00
2023-05-19T03:47:56.492Z,21.08
2023-05-19T03:48:58.358Z,16.90
2023-05-19T03:50:00.236Z,18.11
2023-05-19T03:51:02.375Z,18.08
2023-05-19T03:52:04.308Z,16.89
2023-05-19T03:53:06.077Z,20.17
2023-05-19T03:54:08.009Z,16.53
2023-05-19T03:55:09.866Z,17.69
2023-05-19T03:56:11.926Z,17.64
2023-05-19T03:57:13.784Z,16.33
2023-05-19T03:58:15.732Z,19.26
2023-05-19T03:59:17.670Z,15.00
2023-05-19T04:00:19.941Z,18.52
2023-05-19T04:01:21.898Z,17.30
2023-05-19T04:02:23.713Z,16.81
2023-05-19T04:03:25.535Z,16.86
2023-05-19T04:04:27.362Z,16.45
2023-05-19T04:05:29.174Z,16.32
2023-05-19T04:06:31.042Z,18.91
2023-05-19T04:07:32.743Z,18.94
2023-05-19T04:08:34.490Z,17.66
2023-05-19T04:09:36.221Z,16.61
2023-05-19T04:10:38.299Z,15.19
2023-05-19T04:11:40.121Z,16.40
2023-05-19T04:12:41.958Z,17.33
2023-05-19T04:13:45.193Z,19.07
2023-05-19T04:14:47.269Z,17.62
2023-05-19T04:15:49.101Z,17.11
2023-05-19T04:16:50.965Z,19.54
2023-05-19T04:17:52.765Z,20.68
2023-05-19T04:18:54.589Z,22.83
2023-05-19T04:19:56.521Z,24.41
2023-05-19T04:20:58.675Z,18.91
2023-05-19T04:22:00.622Z,19.98
2023-05-19T04:23:02.575Z,19.58
2023-05-19T04:24:04.482Z,23.43
2023-05-19T04:25:06.376Z,20.04
2023-05-19T04:26:08.844Z,21.31
2023-05-19T04:27:10.699Z,20.52
2023-05-19T04:28:12.644Z,20.63
2023-05-19T04:29:14.497Z,21.91
2023-05-19T04:30:18.426Z,19.96
2023-05-19T04:31:20.101Z,21.44
2023-05-19T04:32:21.935Z,21.14
2023-05-19T04:33:23.943Z,19.41
2023-05-19T04:34:25.686Z,18.58
2023-05-19T04:35:27.644Z,18.66
2023-05-19T04:36:29.700Z,17.57
2023-05-19T04:37:31.571Z,17.54
2023-05-19T04:38:33.544Z,19.86
2023-05-19T04:39:35.554Z,19.95
2023-05-19T04:40:37.409Z,23.42
2023-05-19T04:41:39.358Z,20.91
2023-05-19T04:42:41.224Z,16.31
2023-05-19T04:43:43.266Z,20.27
2023-05-19T04:44:45.128Z,17.79
2023-05-19T04:45:47.077Z,16.11
2023-05-19T04:46:49.270Z,18.28
2023-05-19T04:47:51.202Z,14.21
2023-05-19T04:48:53.021Z,19.50
2023-05-19T04:49:54.875Z,18.40
2023-05-19T04:50:56.843Z,17.78
2023-05-19T04:51:58.778Z,17.63
2023-05-19T04:53:00.632Z,19.43
2023-05-19T04:54:02.476Z,17.86
2023-05-19T04:55:04.427Z,18.01
2023-05-19T04:56:06.595Z,20.07
2023-05-19T04:57:08.538Z,16.33
2023-05-19T04:58:10.398Z,13.15
2023-05-19T04:59:12.241Z,14.80
2023-05-19T05:00:15.025Z,15.61
2023-05-19T05:01:17.117Z,14.59
2023-05-19T05:02:19.264Z,16.77
2023-05-19T05:03:21.364Z,15.95
2023-05-19T05:04:23.194Z,19.24
2023-05-19T05:05:25.079Z,16.66
2023-05-19T05:06:26.934Z,15.09
2023-05-19T05:07:30.844Z,17.95
2023-05-19T05:08:32.384Z,13.06
2023-05-19T05:09:34.327Z,15.26
2023-05-19T05:10:36.379Z,14.61
2023-05-19T05:11:38.276Z,13.74
2023-05-19T05:12:40.051Z,15.73
2023-05-19T05:13:41.927Z,14.36
2023-05-19T05:14:43.764Z,10.21
2023-05-19T05:15:45.595Z,14.82
2023-05-19T05:16:47.572Z,13.78
2023-05-19T05:17:49.882Z,12.39
2023-05-19T05:18:51.918Z,16.39
2023-05-19T05:19:53.849Z,10.76
2023-05-19T05:20:55.703Z,12.51
2023-05-19T05:21:57.649Z,19.11
2023-05-19T05:22:59.508Z,14.62
2023-05-19T05:24:01.467Z,11.78
2023-05-19T05:25:03.410Z,13.09
2023-05-19T05:26:05.467Z,10.12
2023-05-19T05:27:07.409Z,12.27
2023-05-19T05:28:09.295Z,11.90
2023-05-19T05:29:11.351Z,13.07
2023-05-19T05:30:13.372Z,15.97
2023-05-19T05:31:15.230Z,16.18
2023-05-19T05:32:17.062Z,9.57
2023-05-19T05:33:19.158Z,8.71
2023-05-19T05:34:21.287Z,15.51
2023-05-19T05:35:23.140Z,13.95
2023-05-19T05:36:25.032Z,9.96
2023-05-19T05:37:26.940Z,10.61
2023-05-19T05:38:28.720Z,9.04
2023-05-19T05:39:30.564Z,10.56
2023-05-19T05:40:32.532Z,11.05
2023-05-19T05:41:34.250Z,9.73
2023-05-19T05:42:36.108Z,11.14
2023-05-19T05:43:38.000Z,10.33
2023-05-19T05:44:39.850Z,12.23
2023-05-19T05:45:41.723Z,10.29
2023-05-19T05:46:43.603Z,11.87
2023-05-19T05:47:45.611Z,9.53
2023-05-19T05:48:47.549Z,11.19
2023-05-19T05:49:49.926Z,7.24
2023-05-19T05:50:52.988Z,12.81
2023-05-19T05:52:58.370Z,11.29
2023-05-19T05:54:00.128Z,10.85
2023-05-19T05:55:01.993Z,12.32
2023-05-19T05:56:03.877Z,10.56
2023-05-19T05:57:05.722Z,11.21
2023-05-19T05:58:07.572Z,10.72
2023-05-19T05:59:09.449Z,8.76
2023-05-19T06:00:11.885Z,9.85
2023-05-19T06:01:13.726Z,11.44
2023-05-19T06:02:15.695Z,7.47
2023-05-19T06:03:17.650Z,8.80
2023-05-19T06:04:19.863Z,8.71
2023-05-19T06:05:21.777Z,8.65
2023-05-19T06:06:23.665Z,10.04
2023-05-19T06:07:25.517Z,10.84
2023-05-19T06:08:27.369Z,10.26
2023-05-19T06:09:29.133Z,10.81
2023-05-19T06:10:32.664Z,14.53
2023-05-19T06:11:34.836Z,12.66
2023-05-19T06:12:36.695Z,10.67
2023-05-19T06:13:38.539Z,12.73
2023-05-19T06:14:40.440Z,13.99
2023-05-19T06:15:42.327Z,11.86
2023-05-19T06:16:44.212Z,11.01
2023-05-19T06:17:46.378Z,8.83
2023-05-19T06:18:48.242Z,9.97
2023-05-19T06:19:50.091Z,8.84
2023-05-19T06:20:51.948Z,7.89
2023-05-19T06:21:53.802Z,7.59
2023-05-19T06:22:55.560Z,13.36
2023-05-19T06:23:57.409Z,12.64
2023-05-19T06:24:59.317Z,12.59
2023-05-19T06:26:01.267Z,11.19
2023-05-19T06:27:03.219Z,14.78
2023-05-19T06:28:05.172Z,8.44
2023-05-19T06:29:07.135Z,11.46
2023-05-19T06:30:10.102Z,10.85
2023-05-19T06:31:14.868Z,10.15
2023-05-19T06:32:16.566Z,11.59
2023-05-19T06:33:18.419Z,8.51
2023-05-19T06:34:20.371Z,11.27
2023-05-19T06:35:22.307Z,11.73
2023-05-19T06:36:24.280Z,9.89
2023-05-19T06:37:26.224Z,8.31
2023-05-19T06:38:28.187Z,7.75
2023-05-19T06:39:30.018Z,10.56
2023-05-19T06:40:32.174Z,9.37
2023-05-19T06:41:34.358Z,8.73
2023-05-19T06:42:36.218Z,10.35
2023-05-19T06:43:40.672Z,8.92
2023-05-19T06:44:42.480Z,8.05
2023-05-19T06:45:44.405Z,13.23
2023-05-19T06:46:46.489Z,10.32
2023-05-19T06:47:48.568Z,8.56
2023-05-19T06:48:50.467Z,9.69
2023-05-19T06:49:52.417Z,11.43
2023-05-19T06:50:54.721Z,10.63
2023-05-19T06:51:56.532Z,11.99
2023-05-19T06:52:58.534Z,8.80
2023-05-19T06:54:00.574Z,9.47
2023-05-19T06:55:02.596Z,7.83
2023-05-19T06:56:04.664Z,11.07
2023-05-19T06:57:06.900Z,7.05
2023-05-19T06:58:08.759Z,7.45
2023-05-19T06:59:10.805Z,6.69
2023-05-19T07:00:15.255Z,9.31
2023-05-19T07:01:17.094Z,9.18
2023-05-19T07:02:19.021Z,8.80
2023-05-19T07:03:21.500Z,8.74
2023-05-19T07:04:23.544Z,9.21
2023-05-19T07:05:25.918Z,9.29
2023-05-19T07:06:27.863Z,8.14
2023-05-19T07:07:29.814Z,10.09
2023-05-19T07:08:31.762Z,8.33
2023-05-19T07:09:33.761Z,4.71
2023-05-19T07:10:35.968Z,8.50
2023-05-19T07:11:37.822Z,8.38
2023-05-19T07:12:39.565Z,5.91
2023-05-19T07:13:41.419Z,5.91
2023-05-19T07:14:43.274Z,6.30
2023-05-19T07:15:45.147Z,5.06
2023-05-19T07:16:47.181Z,5.45
2023-05-19T07:17:49.191Z,5.15
2023-05-19T07:18:51.157Z,4.21
2023-05-19T07:19:53.143Z,6.17
2023-05-19T07:20:55.087Z,8.45
2023-05-19T07:21:56.940Z,4.66
2023-05-19T07:22:58.888Z,3.95
2023-05-19T07:24:00.643Z,5.32
2023-05-19T07:25:02.377Z,4.37
2023-05-19T07:26:04.211Z,5.69
2023-05-19T07:27:06.127Z,4.29
2023-05-19T07:28:08.044Z,5.60
2023-05-19T07:29:09.987Z,7.68
2023-05-19T07:30:12.069Z,4.54
2023-05-19T07:31:13.882Z,5.02
2023-05-19T07:32:15.862Z,8.03
2023-05-19T07:33:17.790Z,4.42
2023-05-19T07:34:19.656Z,8.07
2023-05-19T07:35:21.407Z,4.63
2023-05-19T07:36:23.963Z,4.95
2023-05-19T07:37:25.875Z,7.88
2023-05-19T07:38:27.801Z,6.05
2023-05-19T07:39:29.842Z,6.76
2023-05-19T07:40:32.313Z,6.62
2023-05-19T07:41:36.287Z,3.33
2023-05-19T07:42:38.131Z,4.24
2023-05-19T07:43:39.873Z,5.06
2023-05-19T07:44:41.603Z,5.49
2023-05-19T07:45:43.404Z,12.58
2023-05-19T07:46:45.334Z,6.19
2023-05-19T07:47:47.240Z,7.11
2023-05-19T07:48:49.084Z,6.31
2023-05-19T07:49:51.867Z,8.93
2023-05-19T07:50:54.166Z,5.78
2023-05-19T07:51:56.115Z,4.72
2023-05-19T07:52:58.065Z,8.70
2023-05-19T07:54:00.016Z,4.95
2023-05-19T07:55:01.867Z,6.25
2023-05-19T07:56:03.715Z,7.77
2023-05-19T07:57:05.478Z,7.73
2023-05-19T07:58:07.654Z,7.45
2023-05-19T07:59:09.528Z,6.73
2023-05-19T08:00:11.356Z,8.61
2023-05-19T08:01:13.227Z,10.63
2023-05-19T08:02:14.980Z,5.34
2023-05-19T08:03:16.995Z,6.99
2023-05-19T08:04:19.035Z,7.28
2023-05-19T08:05:21.002Z,4.54
2023-05-19T08:06:23.149Z,6.87
2023-05-19T08:07:24.998Z,6.71
2023-05-19T08:08:26.761Z,6.04
2023-05-19T08:09:28.621Z,4.63
2023-05-19T08:10:30.760Z,3.89
2023-05-19T08:11:32.814Z,14.56
2023-05-19T08:12:34.658Z,10.96
2023-05-19T08:13:36.438Z,6.18
2023-05-19T08:14:38.279Z,4.68
2023-05-19T08:15:40.052Z,5.54
2023-05-19T08:16:42.174Z,6.63
2023-05-19T08:17:44.123Z,3.69
2023-05-19T08:18:46.190Z,7.29
2023-05-19T08:19:48.026Z,6.70
2023-05-19T08:20:49.939Z,7.02
2023-05-19T08:21:51.681Z,4.86
2023-05-19T08:22:53.529Z,4.69
2023-05-19T08:23:55.409Z,7.80
2023-05-19T08:24:57.260Z,7.19
2023-05-19T08:25:59.095Z,5.27
2023-05-19T08:27:01.093Z,5.55
2023-05-19T08:28:03.017Z,5.39
2023-05-19T08:29:05.052Z,5.59
2023-05-19T08:30:07.058Z,4.40
2023-05-19T08:31:08.929Z,10.96
2023-05-19T08:32:12.457Z,6.51
2023-05-19T08:33:14.565Z,6.73
2023-05-19T08:34:16.372Z,6.41
2023-05-19T08:35:18.125Z,4.06
2023-05-19T08:36:20.069Z,5.63
2023-05-19T08:37:21.889Z,6.86
2023-05-19T08:38:23.725Z,5.05
2023-05-19T08:39:25.593Z,6.58
2023-05-19T08:40:27.450Z,5.51
2023-05-19T08:41:29.309Z,5.14
2023-05-19T08:42:31.150Z,6.64
2023-05-19T08:43:33.003Z,6.42
2023-05-19T08:44:34.896Z,5.28
2023-05-19T08:45:36.758Z,4.85
2023-05-19T08:46:38.691Z,5.76
2023-05-19T08:47:40.462Z,8.03
2023-05-19T08:48:42.196Z,7.59
2023-05-19T08:49:43.941Z,6.54
2023-05-19T08:50:45.791Z,8.24
2023-05-19T08:51:47.499Z,9.23
2023-05-19T08:52:51.843Z,6.83
2023-05-19T08:53:53.063Z,7.76
2023-05-19T08:54:54.980Z,8.59
2023-05-19T08:55:56.842Z,5.18
2023-05-19T08:56:58.774Z,6.65
2023-05-19T08:58:00.665Z,10.07
2023-05-19T08:59:02.710Z,8.51
2023-05-19T09:00:04.877Z,7.51
2023-05-19T09:01:06.854Z,6.85
2023-05-19T09:02:08.886Z,9.12
2023-05-19T09:04:15.346Z,6.15
2023-05-19T09:05:17.519Z,8.01
2023-05-19T09:06:19.451Z,5.99
2023-05-19T09:07:21.325Z,5.87
2023-05-19T09:08:23.058Z,8.35
2023-05-19T09:09:24.932Z,7.03
2023-05-19T09:10:28.469Z,6.15
2023-05-19T09:11:30.613Z,5.76
2023-05-19T09:12:32.468Z,5.58
2023-05-19T09:13:34.324Z,10.74
2023-05-19T09:14:36.167Z,5.06
2023-05-19T09:15:38.068Z,7.29
2023-05-19T09:16:39.989Z,5.41
2023-05-19T09:19:03.133Z,5.27
2023-05-19T09:20:05.051Z,8.73
2023-05-19T09:21:06.925Z,7.04
2023-05-19T09:22:08.808Z,12.98
2023-05-19T09:23:12.855Z,8.11
2023-05-19T09:24:14.630Z,9.98
2023-05-19T09:25:16.541Z,7.39
2023-05-19T09:26:18.821Z,9.21
2023-05-19T09:27:20.670Z,6.22
2023-05-19T09:28:22.507Z,8.17
2023-05-19T09:29:24.281Z,8.66
2023-05-19T09:30:26.108Z,7.46
2023-05-19T09:31:28.021Z,7.67
2023-05-19T09:32:30.001Z,8.71
2023-05-19T09:33:32.980Z,7.25
2023-05-19T09:34:34.933Z,13.93
2023-05-19T09:35:36.974Z,15.03
2023-05-19T09:36:39.030Z,9.13
2023-05-19T09:37:40.963Z,12.99
2023-05-19T09:38:42.815Z,10.69
2023-05-19T09:39:44.773Z,16.32
2023-05-19T09:40:46.820Z,19.53
2023-05-19T09:41:48.777Z,17.55
2023-05-19T09:42:50.728Z,8.89
2023-05-19T09:43:52.495Z,15.96
2023-05-19T09:44:54.428Z,12.98
2023-05-19T09:45:56.439Z,12.23
2023-05-19T09:46:58.582Z,11.09
2023-05-19T09:48:00.531Z,15.02
2023-05-19T09:49:02.546Z,12.52
2023-05-19T09:50:04.602Z,16.27
2023-05-19T09:51:06.607Z,13.29
2023-05-19T09:52:09.115Z,17.77
2023-05-19T09:53:12.939Z,8.25
2023-05-19T09:54:14.763Z,8.96
2023-05-19T09:55:16.720Z,8.15
2023-05-19T09:56:18.780Z,12.43
2023-05-19T09:57:20.726Z,14.46
2023-05-19T09:58:22.680Z,9.43
2023-05-19T09:59:24.633Z,10.15
2023-05-19T10:00:26.688Z,7.66
2023-05-19T10:01:28.765Z,9.66
2023-05-19T10:02:30.693Z,10.30
2023-05-19T10:03:32.754Z,10.96
2023-05-19T10:04:34.657Z,8.65
2023-05-19T10:05:36.666Z,9.25
2023-05-19T10:06:38.805Z,9.80
2023-05-19T10:07:40.772Z,9.63
2023-05-19T10:08:42.632Z,10.83
2023-05-19T10:11:05.866Z,9.92
2023-05-19T10:12:07.830Z,7.59
2023-05-19T10:13:10.078Z,11.67
2023-05-19T10:14:12.061Z,11.38
2023-05-19T10:15:14.001Z,10.83
2023-05-19T10:16:16.371Z,15.25
2023-05-19T10:17:18.399Z,12.15
2023-05-19T10:18:20.355Z,9.74
2023-05-19T10:19:22.365Z,9.92
2023-05-19T10:20:24.362Z,11.37
2023-05-19T10:21:26.326Z,12.37
2023-05-19T10:22:28.366Z,11.41
2023-05-19T10:23:30.219Z,14.67
2023-05-19T10:24:32.224Z,13.29
2023-05-19T10:25:34.249Z,9.47
2023-05-19T10:26:36.792Z,16.07
2023-05-19T10:27:38.758Z,13.44
2023-05-19T10:28:40.595Z,9.78
2023-05-19T10:29:42.454Z,12.13
2023-05-19T10:30:44.733Z,10.78
2023-05-19T10:31:46.698Z,9.96
2023-05-19T10:32:48.735Z,10.25
2023-05-19T10:33:50.677Z,13.67
2023-05-19T10:34:52.643Z,15.91
2023-05-19T10:35:54.672Z,12.93
2023-05-19T10:36:56.930Z,12.25
2023-05-19T10:37:58.677Z,11.86
2023-05-19T10:39:00.637Z,13.32
2023-05-19T10:40:02.582Z,11.78
2023-05-19T10:41:04.445Z,11.01
2023-05-19T10:42:06.505Z,10.53
2023-05-19T10:43:08.543Z,11.71
2023-05-19T10:44:10.503Z,15.37
2023-05-19T10:45:12.454Z,18.11
2023-05-19T10:46:14.901Z,11.86
2023-05-19T10:47:16.942Z,15.46
2023-05-19T10:48:18.921Z,13.29
2023-05-19T10:49:20.766Z,12.51
2023-05-19T10:50:22.750Z,11.91
2023-05-19T10:51:24.780Z,12.69
2023-05-19T10:52:26.965Z,12.56
2023-05-19T10:53:28.905Z,13.90
2023-05-19T10:54:31.056Z,14.27
2023-05-19T10:55:33.036Z,11.43
2023-05-19T10:56:35.270Z,10.79
2023-05-19T10:57:37.218Z,14.45
2023-05-19T10:58:39.185Z,12.57
2023-05-19T10:59:41.222Z,13.44
2023-05-19T11:00:43.186Z,18.19
2023-05-19T11:01:45.259Z,12.98
2023-05-19T11:02:47.302Z,15.73
2023-05-19T11:03:49.389Z,12.37
2023-05-19T11:04:51.900Z,13.78
2023-05-19T11:05:54.058Z,11.40
2023-05-19T11:06:55.906Z,11.71
2023-05-19T11:07:57.868Z,14.49
2023-05-19T11:08:59.715Z,17.35
2023-05-19T11:10:01.769Z,14.79
2023-05-19T11:11:03.727Z,11.71
2023-05-19T11:12:05.675Z,13.63
2023-05-19T11:13:07.640Z,14.29
2023-05-19T11:14:09.679Z,13.51
2023-05-19T11:15:11.637Z,14.03
2023-05-19T11:16:13.806Z,14.63
2023-05-19T11:17:15.788Z,13.92
2023-05-19T11:18:17.794Z,16.45
2023-05-19T11:19:19.702Z,13.88
2023-05-19T11:20:22.321Z,15.68
2023-05-19T11:21:24.330Z,16.24
2023-05-19T11:22:26.257Z,13.35
2023-05-19T11:23:28.465Z,12.52
2023-05-19T11:24:30.436Z,14.09
2023-05-19T11:25:32.529Z,15.68
2023-05-19T11:26:34.643Z,15.47
2023-05-19T11:27:36.597Z,22.15
2023-05-19T11:28:38.445Z,21.68
2023-05-19T11:29:40.306Z,16.22
2023-05-19T11:30:42.558Z,17.25
2023-05-19T11:31:44.562Z,17.14
2023-05-19T11:32:46.546Z,20.65
2023-05-19T11:33:48.418Z,19.26
2023-05-19T11:34:50.378Z,17.95
2023-05-19T11:35:52.325Z,14.51
2023-05-19T11:36:54.373Z,18.31
2023-05-19T11:37:56.330Z,14.45
2023-05-19T11:38:58.177Z,14.48
2023-05-19T11:40:02.698Z,14.71
2023-05-19T11:41:04.748Z,20.26
2023-05-19T11:42:06.707Z,16.80
2023-05-19T11:43:08.654Z,17.50
2023-05-19T11:44:10.608Z,15.83
2023-05-19T11:45:12.752Z,18.38
2023-05-19T11:46:15.668Z,15.90
2023-05-19T11:47:17.581Z,17.84
2023-05-19T11:48:19.453Z,18.06
2023-05-19T11:49:21.496Z,18.43
2023-05-19T11:50:23.582Z,15.75
2023-05-19T11:51:25.595Z,16.03
2023-05-19T11:52:27.564Z,14.87
2023-05-19T11:53:29.508Z,16.71
2023-05-19T11:54:31.456Z,14.97
2023-05-19T11:55:33.503Z,15.67
2023-05-19T11:56:35.565Z,15.81
2023-05-19T11:57:37.411Z,15.17
2023-05-19T11:58:39.183Z,15.87
2023-05-19T11:59:41.014Z,15.59
2023-05-19T12:00:43.177Z,16.17
2023-05-19T12:01:45.226Z,16.78
2023-05-19T12:02:47.168Z,18.74
2023-05-19T12:03:49.358Z,14.61
2023-05-19T12:04:51.536Z,14.98
2023-05-19T12:05:53.352Z,15.02
2023-05-19T12:06:55.501Z,14.39
2023-05-19T12:07:57.247Z,14.67
2023-05-19T12:08:59.218Z,16.44
2023-05-19T12:10:01.058Z,15.93
2023-05-19T12:11:02.909Z,15.45
2023-05-19T12:12:04.968Z,14.19
2023-05-19T12:13:06.902Z,13.85
2023-05-19T12:14:08.767Z,15.02
2023-05-19T12:15:11.413Z,13.74
2023-05-19T12:16:13.828Z,15.20
2023-05-19T12:17:15.859Z,14.77
2023-05-19T12:18:18.101Z,13.41
2023-05-19T12:19:19.966Z,13.88
2023-05-19T12:20:22.007Z,14.93
2023-05-19T12:21:24.271Z,14.80
2023-05-19T12:22:28.066Z,15.94
2023-05-19T12:23:29.908Z,13.61
2023-05-19T12:24:31.940Z,15.51
2023-05-19T12:25:34.221Z,15.15
2023-05-19T12:26:36.687Z,13.29
2023-05-19T12:27:38.542Z,16.45
2023-05-19T12:28:40.398Z,13.64
2023-05-19T12:29:42.342Z,13.78
2023-05-19T12:30:44.409Z,14.65
2023-05-19T12:31:46.739Z,13.81
2023-05-19T12:32:48.784Z,15.35
2023-05-19T12:33:50.671Z,12.65
2023-05-19T12:34:52.631Z,15.39
2023-05-19T12:35:54.984Z,14.92
2023-05-19T12:36:56.928Z,16.91
2023-05-19T12:37:58.893Z,14.19
2023-05-19T12:39:00.940Z,14.29
2023-05-19T12:40:02.899Z,13.50
2023-05-19T12:41:04.955Z,15.96
2023-05-19T12:42:07.014Z,14.99
2023-05-19T12:43:08.996Z,13.98
2023-05-19T12:44:10.903Z,15.55
2023-05-19T12:45:12.874Z,26.37
2023-05-19T12:46:15.653Z,21.44
2023-05-19T12:47:17.583Z,22.71
2023-05-19T12:48:19.560Z,17.99
2023-05-19T12:49:21.590Z,15.65
2023-05-19T12:50:23.953Z,20.88
2023-05-19T12:51:25.909Z,17.51
2023-05-19T12:52:27.754Z,17.36
2023-05-19T12:53:29.697Z,17.31
2023-05-19T12:54:31.597Z,13.46
2023-05-19T12:55:33.626Z,13.55
2023-05-19T12:56:35.567Z,14.32
2023-05-19T12:57:37.922Z,14.03
2023-05-19T12:58:39.882Z,17.25
2023-05-19T12:59:41.826Z,13.95
2023-05-19T13:00:44.218Z,13.31
2023-05-19T13:01:46.383Z,16.00
2023-05-19T13:02:48.442Z,12.00
2023-05-19T13:03:50.586Z,15.39
2023-05-19T13:04:52.627Z,14.99
2023-05-19T13:05:54.981Z,14.92
2023-05-19T13:06:56.946Z,17.81
2023-05-19T13:07:58.989Z,15.09
2023-05-19T13:09:00.948Z,13.27
2023-05-19T13:10:02.995Z,11.05
2023-05-19T13:11:04.987Z,13.73
2023-05-19T13:12:06.898Z,17.03
2023-05-19T13:13:08.850Z,14.87
2023-05-19T13:14:10.699Z,12.33
2023-05-19T13:15:12.658Z,14.55
2023-05-19T13:16:15.588Z,14.23
2023-05-19T13:17:17.580Z,13.52
2023-05-19T13:18:19.461Z,14.04
2023-05-19T13:19:25.476Z,13.77
2023-05-19T13:20:27.637Z,15.19
2023-05-19T13:21:29.078Z,13.09
2023-05-19T13:22:30.951Z,18.93
2023-05-19T13:23:32.893Z,14.40
2023-05-19T13:24:35.138Z,13.17
2023-05-19T13:25:37.100Z,14.05
2023-05-19T13:26:39.046Z,12.97
2023-05-19T13:27:40.891Z,14.60
2023-05-19T13:28:42.639Z,14.37
2023-05-19T13:29:44.599Z,14.87
2023-05-19T13:30:46.697Z,13.41
2023-05-19T13:31:49.009Z,13.53
2023-05-19T13:32:51.020Z,13.34